sensor_id;sensor_type;location;lat;lon;timestamp;P1;durP1;ratioP1;P2;durP2;ratioP2
10295;SDS011;5193;51.032;6.356;2022-09-09T00:00:47;1.67;;;0.63;;
10295;SDS011;5193;51.032;6.356;2022-09-09T00:03:21;0.43;;;0.43;;
10295;SDS011;5193;51.032;6.356;2022-09-09T00:06:08;1.70;;;0.50;;
10295;SDS011;5193;51.032;6.356;2022-09-09T00:17:11;1.53;;;0.90;;
10295;SDS011;5193;51.032;6.356;2022-09-09T00:19:46;1.57;;;0.63;;
10295;SDS011;5193;51.032;6.356;2022-09-09T00:22:21;1.93;;;0.70;;
10295;SDS011;5193;51.032;6.356;2022-09-09T00:24:50;4.10;;;0.67;;
10295;SDS011;5193;51.032;6.356;2022-09-09T00:30:19;1.27;;;0.60;;
10295;SDS011;5193;51.032;6.356;2022-09-09T00:32:50;2.00;;;0.60;;
10295;SDS011;5193;51.032;6.356;2022-09-09T00:37:56;1.80;;;0.70;;
10295;SDS011;5193;51.032;6.356;2022-09-09T00:40:34;1.50;;;0.70;;
10295;SDS011;5193;51.032;6.356;2022-09-09T00:43:21;1.43;;;0.60;;
10295;SDS011;5193;51.032;6.356;2022-09-09T00:45:59;1.87;;;0.80;;
10295;SDS011;5193;51.032;6.356;2022-09-09T00:54:41;2.43;;;0.60;;
10295;SDS011;5193;51.032;6.356;2022-09-09T00:57:30;2.03;;;0.63;;
10295;SDS011;5193;51.032;6.356;2022-09-09T00:59:59;5.40;;;1.00;;
10295;SDS011;5193;51.032;6.356;2022-09-09T01:02:33;1.83;;;0.53;;
10295;SDS011;5193;51.032;6.356;2022-09-09T01:05:20;1.80;;;0.50;;
10295;SDS011;5193;51.032;6.356;2022-09-09T01:08:12;1.03;;;0.83;;
10295;SDS011;5193;51.032;6.356;2022-09-09T01:10:59;3.00;;;0.60;;
10295;SDS011;5193;51.032;6.356;2022-09-09T01:13:28;2.27;;;0.60;;
10295;SDS011;5193;51.032;6.356;2022-09-09T01:15:56;2.10;;;0.50;;
10295;SDS011;5193;51.032;6.356;2022-09-09T01:18:32;1.07;;;0.73;;
10295;SDS011;5193;51.032;6.356;2022-09-09T01:26:52;1.80;;;0.63;;
10295;SDS011;5193;51.032;6.356;2022-09-09T01:29:24;1.90;;;0.60;;
10295;SDS011;5193;51.032;6.356;2022-09-09T01:31:57;2.00;;;0.70;;
10295;SDS011;5193;51.032;6.356;2022-09-09T01:34:26;2.70;;;0.80;;
10295;SDS011;5193;51.032;6.356;2022-09-09T01:39:24;1.43;;;0.60;;
10295;SDS011;5193;51.032;6.356;2022-09-09T01:41:50;2.20;;;0.50;;
10295;SDS011;5193;51.032;6.356;2022-09-09T01:44:17;2.10;;;0.77;;
10295;SDS011;5193;51.032;6.356;2022-09-09T01:46:44;3.10;;;0.90;;
10295;SDS011;5193;51.032;6.356;2022-09-09T01:49:09;2.47;;;0.87;;
10295;SDS011;5193;51.032;6.356;2022-09-09T01:51:36;2.87;;;0.83;;
10295;SDS011;5193;51.032;6.356;2022-09-09T01:54:05;1.50;;;0.60;;
10295;SDS011;5193;51.032;6.356;2022-09-09T01:59:21;4.73;;;0.90;;
10295;SDS011;5193;51.032;6.356;2022-09-09T02:02:18;1.30;;;0.60;;
10295;SDS011;5193;51.032;6.356;2022-09-09T02:07:49;2.23;;;0.70;;
10295;SDS011;5193;51.032;6.356;2022-09-09T02:10:28;9.57;;;0.80;;
10295;SDS011;5193;51.032;6.356;2022-09-09T02:13:02;5.23;;;1.27;;
10295;SDS011;5193;51.032;6.356;2022-09-09T02:15:42;1.67;;;0.80;;
10295;SDS011;5193;51.032;6.356;2022-09-09T02:18:35;3.27;;;0.80;;
10295;SDS011;5193;51.032;6.356;2022-09-09T02:21:07;4.07;;;0.83;;
10295;SDS011;5193;51.032;6.356;2022-09-09T02:23:36;2.63;;;0.90;;
10295;SDS011;5193;51.032;6.356;2022-09-09T02:26:04;3.03;;;1.10;;
10295;SDS011;5193;51.032;6.356;2022-09-09T02:28:33;2.83;;;0.77;;
10295;SDS011;5193;51.032;6.356;2022-09-09T02:30:59;1.83;;;0.90;;
10295;SDS011;5193;51.032;6.356;2022-09-09T02:33:27;5.07;;;0.97;;
10295;SDS011;5193;51.032;6.356;2022-09-09T02:35:59;5.43;;;1.30;;
10295;SDS011;5193;51.032;6.356;2022-09-09T02:38:28;5.47;;;0.90;;
10295;SDS011;5193;51.032;6.356;2022-09-09T02:40:57;4.87;;;1.17;;
10295;SDS011;5193;51.032;6.356;2022-09-09T02:43:23;7.07;;;1.00;;
10295;SDS011;5193;51.032;6.356;2022-09-09T02:45:57;6.87;;;1.10;;
10295;SDS011;5193;51.032;6.356;2022-09-09T02:51:36;6.90;;;0.90;;
10295;SDS011;5193;51.032;6.356;2022-09-09T02:54:19;2.17;;;0.97;;
10295;SDS011;5193;51.032;6.356;2022-09-09T02:56:52;5.53;;;1.00;;
10295;SDS011;5193;51.032;6.356;2022-09-09T02:59:21;4.43;;;0.90;;
10295;SDS011;5193;51.032;6.356;2022-09-09T03:01:50;5.50;;;0.83;;
10295;SDS011;5193;51.032;6.356;2022-09-09T03:04:15;2.93;;;1.10;;
10295;SDS011;5193;51.032;6.356;2022-09-09T03:06:41;5.40;;;1.20;;
10295;SDS011;5193;51.032;6.356;2022-09-09T03:09:08;3.00;;;1.03;;
10295;SDS011;5193;51.032;6.356;2022-09-09T03:11:35;5.07;;;1.20;;
10295;SDS011;5193;51.032;6.356;2022-09-09T03:14:01;1.83;;;1.00;;
10295;SDS011;5193;51.032;6.356;2022-09-09T03:16:27;3.53;;;1.20;;
10295;SDS011;5193;51.032;6.356;2022-09-09T03:18:53;4.83;;;0.97;;
10295;SDS011;5193;51.032;6.356;2022-09-09T03:21:18;8.03;;;1.30;;
10295;SDS011;5193;51.032;6.356;2022-09-09T03:23:44;3.67;;;1.03;;
10295;SDS011;5193;51.032;6.356;2022-09-09T03:26:10;5.23;;;1.33;;
10295;SDS011;5193;51.032;6.356;2022-09-09T03:28:36;4.33;;;1.30;;
10295;SDS011;5193;51.032;6.356;2022-09-09T03:31:02;3.67;;;0.90;;
10295;SDS011;5193;51.032;6.356;2022-09-09T03:33:29;3.10;;;1.00;;
10295;SDS011;5193;51.032;6.356;2022-09-09T03:35:55;3.63;;;1.27;;
10295;SDS011;5193;51.032;6.356;2022-09-09T03:38:22;5.47;;;1.30;;
10295;SDS011;5193;51.032;6.356;2022-09-09T03:40:51;3.30;;;1.10;;
10295;SDS011;5193;51.032;6.356;2022-09-09T03:43:24;5.53;;;1.10;;
10295;SDS011;5193;51.032;6.356;2022-09-09T03:45:50;5.37;;;1.20;;
10295;SDS011;5193;51.032;6.356;2022-09-09T03:48:16;3.07;;;1.17;;
10295;SDS011;5193;51.032;6.356;2022-09-09T03:50:46;7.80;;;1.03;;
10295;SDS011;5193;51.032;6.356;2022-09-09T03:53:14;3.80;;;1.23;;
10295;SDS011;5193;51.032;6.356;2022-09-09T03:55:43;4.63;;;1.00;;
10295;SDS011;5193;51.032;6.356;2022-09-09T03:58:13;3.73;;;1.50;;
10295;SDS011;5193;51.032;6.356;2022-09-09T04:00:40;4.20;;;1.30;;
10295;SDS011;5193;51.032;6.356;2022-09-09T04:03:07;2.13;;;0.93;;
10295;SDS011;5193;51.032;6.356;2022-09-09T04:05:36;3.87;;;1.07;;
10295;SDS011;5193;51.032;6.356;2022-09-09T04:08:07;2.67;;;1.20;;
10295;SDS011;5193;51.032;6.356;2022-09-09T04:10:34;1.83;;;0.83;;
10295;SDS011;5193;51.032;6.356;2022-09-09T04:13:03;6.93;;;1.07;;
10295;SDS011;5193;51.032;6.356;2022-09-09T04:15:30;7.77;;;1.47;;
10295;SDS011;5193;51.032;6.356;2022-09-09T04:17:56;4.73;;;1.03;;
10295;SDS011;5193;51.032;6.356;2022-09-09T04:20:22;4.30;;;1.20;;
10295;SDS011;5193;51.032;6.356;2022-09-09T04:22:47;6.03;;;1.10;;
10295;SDS011;5193;51.032;6.356;2022-09-09T04:25:13;5.07;;;1.13;;
10295;SDS011;5193;51.032;6.356;2022-09-09T04:27:39;7.67;;;1.07;;
10295;SDS011;5193;51.032;6.356;2022-09-09T04:30:05;6.53;;;1.63;;
10295;SDS011;5193;51.032;6.356;2022-09-09T04:32:32;8.20;;;1.27;;
10295;SDS011;5193;51.032;6.356;2022-09-09T04:34:58;5.07;;;1.30;;
10295;SDS011;5193;51.032;6.356;2022-09-09T04:37:24;4.60;;;1.20;;
10295;SDS011;5193;51.032;6.356;2022-09-09T04:39:49;3.87;;;1.07;;
10295;SDS011;5193;51.032;6.356;2022-09-09T04:42:15;6.60;;;1.20;;
10295;SDS011;5193;51.032;6.356;2022-09-09T04:44:42;9.57;;;1.30;;
10295;SDS011;5193;51.032;6.356;2022-09-09T04:47:09;5.10;;;1.00;;
10295;SDS011;5193;51.032;6.356;2022-09-09T04:49:35;5.33;;;1.40;;
10295;SDS011;5193;51.032;6.356;2022-09-09T04:52:01;2.27;;;0.87;;
10295;SDS011;5193;51.032;6.356;2022-09-09T04:54:28;4.30;;;1.00;;
10295;SDS011;5193;51.032;6.356;2022-09-09T04:56:54;6.13;;;1.60;;
10295;SDS011;5193;51.032;6.356;2022-09-09T04:59:20;4.17;;;1.30;;
10295;SDS011;5193;51.032;6.356;2022-09-09T05:01:46;4.27;;;1.10;;
10295;SDS011;5193;51.032;6.356;2022-09-09T05:04:12;6.47;;;1.70;;
10295;SDS011;5193;51.032;6.356;2022-09-09T05:06:40;6.40;;;1.63;;
10295;SDS011;5193;51.032;6.356;2022-09-09T05:09:07;3.13;;;1.13;;
10295;SDS011;5193;51.032;6.356;2022-09-09T05:11:33;6.77;;;1.37;;
10295;SDS011;5193;51.032;6.356;2022-09-09T05:14:03;4.97;;;1.20;;
10295;SDS011;5193;51.032;6.356;2022-09-09T05:16:29;3.50;;;1.10;;
10295;SDS011;5193;51.032;6.356;2022-09-09T05:18:55;6.43;;;1.47;;
10295;SDS011;5193;51.032;6.356;2022-09-09T05:21:22;4.10;;;1.43;;
10295;SDS011;5193;51.032;6.356;2022-09-09T05:23:50;5.30;;;1.57;;
10295;SDS011;5193;51.032;6.356;2022-09-09T05:26:19;6.23;;;1.50;;
10295;SDS011;5193;51.032;6.356;2022-09-09T05:28:46;5.93;;;1.30;;
10295;SDS011;5193;51.032;6.356;2022-09-09T05:31:13;5.97;;;1.70;;
10295;SDS011;5193;51.032;6.356;2022-09-09T05:33:41;4.53;;;1.20;;
10295;SDS011;5193;51.032;6.356;2022-09-09T05:36:09;7.37;;;1.30;;
10295;SDS011;5193;51.032;6.356;2022-09-09T05:38:38;2.47;;;1.03;;
10295;SDS011;5193;51.032;6.356;2022-09-09T05:41:05;4.83;;;1.10;;
10295;SDS011;5193;51.032;6.356;2022-09-09T05:43:32;3.30;;;1.33;;
10295;SDS011;5193;51.032;6.356;2022-09-09T05:46:11;5.83;;;1.83;;
10295;SDS011;5193;51.032;6.356;2022-09-09T05:48:38;5.40;;;1.50;;
10295;SDS011;5193;51.032;6.356;2022-09-09T05:51:06;5.60;;;1.23;;
10295;SDS011;5193;51.032;6.356;2022-09-09T05:53:40;9.30;;;1.30;;
10295;SDS011;5193;51.032;6.356;2022-09-09T05:56:08;8.53;;;1.20;;
10295;SDS011;5193;51.032;6.356;2022-09-09T05:58:35;4.97;;;1.47;;
10295;SDS011;5193;51.032;6.356;2022-09-09T06:01:03;5.80;;;1.20;;
10295;SDS011;5193;51.032;6.356;2022-09-09T06:03:34;2.63;;;1.00;;
10295;SDS011;5193;51.032;6.356;2022-09-09T06:06:01;2.40;;;1.10;;
10295;SDS011;5193;51.032;6.356;2022-09-09T06:08:30;6.37;;;1.30;;
10295;SDS011;5193;51.032;6.356;2022-09-09T06:11:03;6.77;;;1.30;;
10295;SDS011;5193;51.032;6.356;2022-09-09T06:13:30;4.27;;;1.00;;
10295;SDS011;5193;51.032;6.356;2022-09-09T06:15:56;7.50;;;1.50;;
10295;SDS011;5193;51.032;6.356;2022-09-09T06:18:23;3.00;;;1.00;;
10295;SDS011;5193;51.032;6.356;2022-09-09T06:20:56;6.83;;;1.97;;
10295;SDS011;5193;51.032;6.356;2022-09-09T06:23:23;4.53;;;1.20;;
10295;SDS011;5193;51.032;6.356;2022-09-09T06:25:50;2.83;;;1.10;;
10295;SDS011;5193;51.032;6.356;2022-09-09T06:28:16;4.73;;;1.37;;
10295;SDS011;5193;51.032;6.356;2022-09-09T06:30:43;3.83;;;1.40;;
10295;SDS011;5193;51.032;6.356;2022-09-09T06:33:09;7.23;;;1.10;;
10295;SDS011;5193;51.032;6.356;2022-09-09T06:35:35;5.43;;;1.13;;
10295;SDS011;5193;51.032;6.356;2022-09-09T06:38:01;4.83;;;1.27;;
10295;SDS011;5193;51.032;6.356;2022-09-09T06:40:26;3.33;;;1.40;;
10295;SDS011;5193;51.032;6.356;2022-09-09T06:42:52;5.47;;;0.80;;
10295;SDS011;5193;51.032;6.356;2022-09-09T06:45:18;5.30;;;0.90;;
10295;SDS011;5193;51.032;6.356;2022-09-09T06:47:43;7.10;;;1.27;;
10295;SDS011;5193;51.032;6.356;2022-09-09T06:50:09;3.73;;;1.03;;
10295;SDS011;5193;51.032;6.356;2022-09-09T06:52:36;6.20;;;1.00;;
10295;SDS011;5193;51.032;6.356;2022-09-09T06:55:02;6.67;;;1.50;;
10295;SDS011;5193;51.032;6.356;2022-09-09T06:57:28;4.07;;;1.20;;
10295;SDS011;5193;51.032;6.356;2022-09-09T06:59:54;6.23;;;1.30;;
10295;SDS011;5193;51.032;6.356;2022-09-09T07:02:20;3.87;;;1.10;;
10295;SDS011;5193;51.032;6.356;2022-09-09T07:04:46;4.73;;;1.13;;
10295;SDS011;5193;51.032;6.356;2022-09-09T07:07:12;9.87;;;1.33;;
10295;SDS011;5193;51.032;6.356;2022-09-09T07:09:38;6.37;;;1.33;;
10295;SDS011;5193;51.032;6.356;2022-09-09T07:12:05;2.17;;;1.00;;
10295;SDS011;5193;51.032;6.356;2022-09-09T07:14:31;5.10;;;1.57;;
10295;SDS011;5193;51.032;6.356;2022-09-09T07:16:57;5.47;;;1.20;;
10295;SDS011;5193;51.032;6.356;2022-09-09T07:19:23;5.60;;;1.53;;
10295;SDS011;5193;51.032;6.356;2022-09-09T07:21:49;4.83;;;1.00;;
10295;SDS011;5193;51.032;6.356;2022-09-09T07:24:15;4.63;;;1.30;;
10295;SDS011;5193;51.032;6.356;2022-09-09T07:26:40;4.13;;;1.33;;
10295;SDS011;5193;51.032;6.356;2022-09-09T07:29:07;6.33;;;1.27;;
10295;SDS011;5193;51.032;6.356;2022-09-09T07:31:34;6.60;;;1.47;;
10295;SDS011;5193;51.032;6.356;2022-09-09T07:34:03;4.97;;;1.43;;
10295;SDS011;5193;51.032;6.356;2022-09-09T07:36:30;8.93;;;1.40;;
10295;SDS011;5193;51.032;6.356;2022-09-09T07:39:01;4.93;;;1.30;;
10295;SDS011;5193;51.032;6.356;2022-09-09T07:41:33;5.80;;;1.67;;
10295;SDS011;5193;51.032;6.356;2022-09-09T07:44:05;6.70;;;1.97;;
10295;SDS011;5193;51.032;6.356;2022-09-09T07:46:36;3.97;;;0.97;;
10295;SDS011;5193;51.032;6.356;2022-09-09T07:49:04;6.93;;;1.23;;
10295;SDS011;5193;51.032;6.356;2022-09-09T07:51:34;4.90;;;1.50;;
10295;SDS011;5193;51.032;6.356;2022-09-09T07:54:02;4.07;;;1.03;;
10295;SDS011;5193;51.032;6.356;2022-09-09T07:56:30;5.63;;;1.23;;
10295;SDS011;5193;51.032;6.356;2022-09-09T07:58:57;7.57;;;1.20;;
10295;SDS011;5193;51.032;6.356;2022-09-09T08:01:28;4.00;;;1.20;;
10295;SDS011;5193;51.032;6.356;2022-09-09T08:03:56;8.20;;;1.00;;
10295;SDS011;5193;51.032;6.356;2022-09-09T08:06:27;4.47;;;1.00;;
10295;SDS011;5193;51.032;6.356;2022-09-09T08:08:54;6.33;;;1.23;;
10295;SDS011;5193;51.032;6.356;2022-09-09T08:11:20;5.43;;;1.43;;
10295;SDS011;5193;51.032;6.356;2022-09-09T08:13:48;5.20;;;1.37;;
10295;SDS011;5193;51.032;6.356;2022-09-09T08:16:17;2.80;;;1.07;;
10295;SDS011;5193;51.032;6.356;2022-09-09T08:18:47;5.67;;;1.03;;
10295;SDS011;5193;51.032;6.356;2022-09-09T08:21:15;7.77;;;1.80;;
10295;SDS011;5193;51.032;6.356;2022-09-09T08:23:44;7.20;;;1.63;;
10295;SDS011;5193;51.032;6.356;2022-09-09T08:26:12;4.47;;;1.27;;
10295;SDS011;5193;51.032;6.356;2022-09-09T08:28:47;5.07;;;1.43;;
10295;SDS011;5193;51.032;6.356;2022-09-09T08:31:21;3.00;;;1.20;;
10295;SDS011;5193;51.032;6.356;2022-09-09T08:34:00;4.93;;;1.40;;
10295;SDS011;5193;51.032;6.356;2022-09-09T08:36:28;2.50;;;0.87;;
10295;SDS011;5193;51.032;6.356;2022-09-09T08:38:56;3.37;;;0.97;;
10295;SDS011;5193;51.032;6.356;2022-09-09T08:47:08;4.47;;;1.10;;
10295;SDS011;5193;51.032;6.356;2022-09-09T08:49:39;4.87;;;1.27;;
10295;SDS011;5193;51.032;6.356;2022-09-09T08:52:30;6.00;;;1.13;;
10295;SDS011;5193;51.032;6.356;2022-09-09T08:57:51;11.00;;;1.57;;
10295;SDS011;5193;51.032;6.356;2022-09-09T09:00:19;3.30;;;0.90;;
10295;SDS011;5193;51.032;6.356;2022-09-09T09:05:32;4.93;;;1.30;;
10295;SDS011;5193;51.032;6.356;2022-09-09T09:10:46;4.90;;;1.07;;
10295;SDS011;5193;51.032;6.356;2022-09-09T09:18:49;3.87;;;1.10;;
10295;SDS011;5193;51.032;6.356;2022-09-09T09:21:19;5.70;;;1.00;;
10295;SDS011;5193;51.032;6.356;2022-09-09T09:23:59;2.30;;;0.90;;
10295;SDS011;5193;51.032;6.356;2022-09-09T09:26:28;5.33;;;1.30;;
10295;SDS011;5193;51.032;6.356;2022-09-09T09:29:00;2.13;;;0.57;;
10295;SDS011;5193;51.032;6.356;2022-09-09T09:31:34;3.63;;;1.20;;
10295;SDS011;5193;51.032;6.356;2022-09-09T09:34:00;2.70;;;0.90;;
10295;SDS011;5193;51.032;6.356;2022-09-09T09:36:34;2.30;;;0.87;;
10295;SDS011;5193;51.032;6.356;2022-09-09T09:39:07;2.73;;;0.97;;
10295;SDS011;5193;51.032;6.356;2022-09-09T09:44:05;2.57;;;0.77;;
10295;SDS011;5193;51.032;6.356;2022-09-09T09:46:47;4.27;;;0.80;;
10295;SDS011;5193;51.032;6.356;2022-09-09T09:49:13;4.37;;;0.97;;
10295;SDS011;5193;51.032;6.356;2022-09-09T09:51:39;2.97;;;0.90;;
10295;SDS011;5193;51.032;6.356;2022-09-09T09:54:17;2.13;;;0.90;;
10295;SDS011;5193;51.032;6.356;2022-09-09T09:56:52;3.83;;;0.80;;
10295;SDS011;5193;51.032;6.356;2022-09-09T09:59:19;3.23;;;0.90;;
10295;SDS011;5193;51.032;6.356;2022-09-09T10:02:15;2.50;;;0.87;;
10295;SDS011;5193;51.032;6.356;2022-09-09T10:04:42;3.00;;;0.77;;
10295;SDS011;5193;51.032;6.356;2022-09-09T10:07:15;2.10;;;0.70;;
10295;SDS011;5193;51.032;6.356;2022-09-09T10:09:47;2.97;;;1.10;;
10295;SDS011;5193;51.032;6.356;2022-09-09T10:12:29;4.00;;;1.00;;
10295;SDS011;5193;51.032;6.356;2022-09-09T10:23:54;2.63;;;0.80;;
10295;SDS011;5193;51.032;6.356;2022-09-09T10:26:54;3.27;;;0.87;;
10295;SDS011;5193;51.032;6.356;2022-09-09T10:37:22;2.03;;;0.87;;
10295;SDS011;5193;51.032;6.356;2022-09-09T10:40:47;2.67;;;0.67;;
10295;SDS011;5193;51.032;6.356;2022-09-09T10:42:49;3.30;;;0.90;;
10295;SDS011;5193;51.032;6.356;2022-09-09T10:45:29;1.40;;;0.70;;
10295;SDS011;5193;51.032;6.356;2022-09-09T10:48:31;3.67;;;0.90;;
10295;SDS011;5193;51.032;6.356;2022-09-09T10:51:20;2.30;;;0.80;;
10295;SDS011;5193;51.032;6.356;2022-09-09T10:54:07;1.57;;;0.60;;
10295;SDS011;5193;51.032;6.356;2022-09-09T10:56:43;2.00;;;0.70;;
10295;SDS011;5193;51.032;6.356;2022-09-09T10:59:19;6.00;;;0.93;;
10295;SDS011;5193;51.032;6.356;2022-09-09T11:01:51;3.57;;;0.87;;
10295;SDS011;5193;51.032;6.356;2022-09-09T11:04:42;2.20;;;0.70;;
10295;SDS011;5193;51.032;6.356;2022-09-09T11:07:14;3.10;;;0.97;;
10295;SDS011;5193;51.032;6.356;2022-09-09T11:09:50;2.63;;;0.60;;
10295;SDS011;5193;51.032;6.356;2022-09-09T11:12:22;3.40;;;1.20;;
10295;SDS011;5193;51.032;6.356;2022-09-09T11:14:51;1.77;;;0.70;;
10295;SDS011;5193;51.032;6.356;2022-09-09T11:17:42;1.30;;;0.80;;
10295;SDS011;5193;51.032;6.356;2022-09-09T11:20:15;2.33;;;1.03;;
10295;SDS011;5193;51.032;6.356;2022-09-09T11:25:15;2.23;;;0.90;;
10295;SDS011;5193;51.032;6.356;2022-09-09T11:39:33;1.83;;;0.90;;
10295;SDS011;5193;51.032;6.356;2022-09-09T11:44:38;4.17;;;1.13;;
10295;SDS011;5193;51.032;6.356;2022-09-09T11:47:22;4.00;;;0.90;;
10295;SDS011;5193;51.032;6.356;2022-09-09T11:49:54;1.77;;;0.70;;
10295;SDS011;5193;51.032;6.356;2022-09-09T11:52:40;5.60;;;0.77;;
10295;SDS011;5193;51.032;6.356;2022-09-09T11:57:58;4.50;;;0.80;;
10295;SDS011;5193;51.032;6.356;2022-09-09T12:00:47;3.07;;;0.90;;
10295;SDS011;5193;51.032;6.356;2022-09-09T12:06:08;1.60;;;0.70;;
10295;SDS011;5193;51.032;6.356;2022-09-09T12:08:36;2.00;;;0.80;;
10295;SDS011;5193;51.032;6.356;2022-09-09T12:11:05;2.27;;;0.80;;
10295;SDS011;5193;51.032;6.356;2022-09-09T12:13:31;0.83;;;0.53;;
10295;SDS011;5193;51.032;6.356;2022-09-09T12:15:58;2.43;;;0.80;;
10295;SDS011;5193;51.032;6.356;2022-09-09T12:21:21;1.73;;;0.70;;
10295;SDS011;5193;51.032;6.356;2022-09-09T12:24:07;1.50;;;0.67;;
10295;SDS011;5193;51.032;6.356;2022-09-09T12:37:22;2.47;;;0.83;;
10295;SDS011;5193;51.032;6.356;2022-09-09T12:39:55;1.77;;;0.63;;
10295;SDS011;5193;51.032;6.356;2022-09-09T12:42:24;1.57;;;0.63;;
10295;SDS011;5193;51.032;6.356;2022-09-09T12:44:51;5.70;;;0.60;;
10295;SDS011;5193;51.032;6.356;2022-09-09T12:47:17;2.67;;;1.03;;
10295;SDS011;5193;51.032;6.356;2022-09-09T12:49:47;5.00;;;1.00;;
10295;SDS011;5193;51.032;6.356;2022-09-09T12:52:16;0.90;;;0.70;;
10295;SDS011;5193;51.032;6.356;2022-09-09T12:54:44;1.07;;;0.70;;
10295;SDS011;5193;51.032;6.356;2022-09-09T12:57:16;1.70;;;0.63;;
10295;SDS011;5193;51.032;6.356;2022-09-09T12:59:43;1.43;;;0.97;;
10295;SDS011;5193;51.032;6.356;2022-09-09T13:02:23;2.53;;;1.20;;
10295;SDS011;5193;51.032;6.356;2022-09-09T13:04:53;5.17;;;1.17;;
10295;SDS011;5193;51.032;6.356;2022-09-09T13:07:20;1.80;;;0.67;;
10295;SDS011;5193;51.032;6.356;2022-09-09T13:09:47;3.50;;;1.20;;
10295;SDS011;5193;51.032;6.356;2022-09-09T13:12:21;3.07;;;0.83;;
10295;SDS011;5193;51.032;6.356;2022-09-09T13:14:53;8.07;;;1.30;;
10295;SDS011;5193;51.032;6.356;2022-09-09T13:17:22;1.70;;;0.77;;
10295;SDS011;5193;51.032;6.356;2022-09-09T13:19:50;1.53;;;0.70;;
10295;SDS011;5193;51.032;6.356;2022-09-09T13:22:36;1.93;;;0.90;;
10295;SDS011;5193;51.032;6.356;2022-09-09T13:27:37;4.50;;;0.90;;
10295;SDS011;5193;51.032;6.356;2022-09-09T13:35:57;2.63;;;1.00;;
10295;SDS011;5193;51.032;6.356;2022-09-09T13:38:24;6.13;;;0.90;;
10295;SDS011;5193;51.032;6.356;2022-09-09T13:41:08;2.00;;;0.87;;
10295;SDS011;5193;51.032;6.356;2022-09-09T13:43:38;3.03;;;0.90;;
10295;SDS011;5193;51.032;6.356;2022-09-09T13:49:03;2.57;;;0.90;;
10295;SDS011;5193;51.032;6.356;2022-09-09T13:51:46;2.07;;;0.67;;
10295;SDS011;5193;51.032;6.356;2022-09-09T13:54:16;3.67;;;0.87;;
10295;SDS011;5193;51.032;6.356;2022-09-09T13:56:44;2.70;;;0.80;;
10295;SDS011;5193;51.032;6.356;2022-09-09T13:59:15;3.50;;;1.00;;
10295;SDS011;5193;51.032;6.356;2022-09-09T14:01:43;3.10;;;1.10;;
10295;SDS011;5193;51.032;6.356;2022-09-09T14:04:09;2.43;;;0.83;;
10295;SDS011;5193;51.032;6.356;2022-09-09T14:06:35;0.77;;;0.77;;
10295;SDS011;5193;51.032;6.356;2022-09-09T14:09:03;3.43;;;0.80;;
10295;SDS011;5193;51.032;6.356;2022-09-09T14:11:29;2.33;;;0.73;;
10295;SDS011;5193;51.032;6.356;2022-09-09T14:13:54;1.13;;;0.50;;
10295;SDS011;5193;51.032;6.356;2022-09-09T14:16:20;0.80;;;0.50;;
10295;SDS011;5193;51.032;6.356;2022-09-09T14:18:46;5.80;;;1.27;;
10295;SDS011;5193;51.032;6.356;2022-09-09T14:21:13;4.00;;;1.00;;
10295;SDS011;5193;51.032;6.356;2022-09-09T14:23:40;4.10;;;0.70;;
10295;SDS011;5193;51.032;6.356;2022-09-09T14:26:06;5.10;;;1.27;;
10295;SDS011;5193;51.032;6.356;2022-09-09T14:28:33;4.83;;;0.80;;
10295;SDS011;5193;51.032;6.356;2022-09-09T14:31:00;2.50;;;0.60;;
10295;SDS011;5193;51.032;6.356;2022-09-09T14:33:27;0.87;;;0.40;;
10295;SDS011;5193;51.032;6.356;2022-09-09T14:35:59;2.43;;;0.70;;
10295;SDS011;5193;51.032;6.356;2022-09-09T14:38:28;1.93;;;0.50;;
10295;SDS011;5193;51.032;6.356;2022-09-09T14:40:55;1.03;;;0.40;;
10295;SDS011;5193;51.032;6.356;2022-09-09T14:43:21;1.67;;;0.50;;
10295;SDS011;5193;51.032;6.356;2022-09-09T14:45:46;1.20;;;0.40;;
10295;SDS011;5193;51.032;6.356;2022-09-09T14:48:16;0.73;;;0.60;;
10295;SDS011;5193;51.032;6.356;2022-09-09T14:50:42;1.03;;;0.40;;
10295;SDS011;5193;51.032;6.356;2022-09-09T14:53:08;1.33;;;0.47;;
10295;SDS011;5193;51.032;6.356;2022-09-09T14:55:34;3.00;;;0.40;;
10295;SDS011;5193;51.032;6.356;2022-09-09T14:58:00;1.13;;;0.50;;
10295;SDS011;5193;51.032;6.356;2022-09-09T15:00:26;1.07;;;0.50;;
10295;SDS011;5193;51.032;6.356;2022-09-09T15:02:52;0.73;;;0.30;;
10295;SDS011;5193;51.032;6.356;2022-09-09T15:05:18;1.00;;;0.40;;
10295;SDS011;5193;51.032;6.356;2022-09-09T15:07:44;2.37;;;0.57;;
10295;SDS011;5193;51.032;6.356;2022-09-09T15:10:10;1.60;;;0.40;;
10295;SDS011;5193;51.032;6.356;2022-09-09T15:12:36;1.87;;;0.70;;
10295;SDS011;5193;51.032;6.356;2022-09-09T15:15:03;2.43;;;0.70;;
10295;SDS011;5193;51.032;6.356;2022-09-09T15:17:29;1.77;;;0.63;;
10295;SDS011;5193;51.032;6.356;2022-09-09T15:19:55;1.10;;;0.77;;
10295;SDS011;5193;51.032;6.356;2022-09-09T15:22:21;4.73;;;0.90;;
10295;SDS011;5193;51.032;6.356;2022-09-09T15:24:47;1.93;;;0.70;;
10295;SDS011;5193;51.032;6.356;2022-09-09T15:27:13;8.17;;;1.00;;
10295;SDS011;5193;51.032;6.356;2022-09-09T15:29:43;4.40;;;1.00;;
10295;SDS011;5193;51.032;6.356;2022-09-09T15:32:09;3.23;;;1.00;;
10295;SDS011;5193;51.032;6.356;2022-09-09T15:34:35;2.40;;;1.17;;
10295;SDS011;5193;51.032;6.356;2022-09-09T15:37:00;2.17;;;1.07;;
10295;SDS011;5193;51.032;6.356;2022-09-09T15:39:26;2.27;;;0.90;;
10295;SDS011;5193;51.032;6.356;2022-09-09T15:41:52;4.13;;;0.87;;
10295;SDS011;5193;51.032;6.356;2022-09-09T15:44:18;4.77;;;0.83;;
10295;SDS011;5193;51.032;6.356;2022-09-09T15:46:53;3.27;;;1.00;;
10295;SDS011;5193;51.032;6.356;2022-09-09T15:49:22;1.03;;;0.70;;
10295;SDS011;5193;51.032;6.356;2022-09-09T15:51:53;2.50;;;0.73;;
10295;SDS011;5193;51.032;6.356;2022-09-09T15:54:20;2.83;;;1.00;;
10295;SDS011;5193;51.032;6.356;2022-09-09T15:56:52;1.33;;;0.60;;
10295;SDS011;5193;51.032;6.356;2022-09-09T15:59:21;1.07;;;0.50;;
10295;SDS011;5193;51.032;6.356;2022-09-09T16:01:51;1.27;;;0.60;;
10295;SDS011;5193;51.032;6.356;2022-09-09T16:04:17;1.63;;;0.77;;
10295;SDS011;5193;51.032;6.356;2022-09-09T16:06:48;3.13;;;1.00;;
10295;SDS011;5193;51.032;6.356;2022-09-09T16:09:19;2.93;;;0.83;;
10295;SDS011;5193;51.032;6.356;2022-09-09T16:11:45;2.57;;;0.80;;
10295;SDS011;5193;51.032;6.356;2022-09-09T16:14:12;3.70;;;1.00;;
10295;SDS011;5193;51.032;6.356;2022-09-09T16:16:38;1.30;;;0.87;;
10295;SDS011;5193;51.032;6.356;2022-09-09T16:19:05;1.97;;;0.90;;
10295;SDS011;5193;51.032;6.356;2022-09-09T16:21:33;2.97;;;1.00;;
10295;SDS011;5193;51.032;6.356;2022-09-09T16:24:01;3.47;;;1.03;;
10295;SDS011;5193;51.032;6.356;2022-09-09T16:26:28;3.50;;;0.90;;
10295;SDS011;5193;51.032;6.356;2022-09-09T16:28:56;1.93;;;0.73;;
10295;SDS011;5193;51.032;6.356;2022-09-09T16:31:25;2.07;;;1.03;;
10295;SDS011;5193;51.032;6.356;2022-09-09T16:33:52;3.10;;;0.87;;
10295;SDS011;5193;51.032;6.356;2022-09-09T16:36:21;3.30;;;1.03;;
10295;SDS011;5193;51.032;6.356;2022-09-09T16:38:52;1.83;;;0.87;;
10295;SDS011;5193;51.032;6.356;2022-09-09T16:41:20;2.27;;;0.90;;
10295;SDS011;5193;51.032;6.356;2022-09-09T16:43:46;2.37;;;1.17;;
10295;SDS011;5193;51.032;6.356;2022-09-09T16:48:40;3.40;;;1.00;;
10295;SDS011;5193;51.032;6.356;2022-09-09T16:51:07;4.40;;;1.10;;
10295;SDS011;5193;51.032;6.356;2022-09-09T16:53:36;4.83;;;1.27;;
10295;SDS011;5193;51.032;6.356;2022-09-09T16:56:05;5.40;;;1.47;;
10295;SDS011;5193;51.032;6.356;2022-09-09T16:58:32;3.47;;;0.80;;
10295;SDS011;5193;51.032;6.356;2022-09-09T17:00:58;4.90;;;1.30;;
10295;SDS011;5193;51.032;6.356;2022-09-09T17:03:24;1.37;;;0.80;;
10295;SDS011;5193;51.032;6.356;2022-09-09T17:05:50;2.50;;;0.90;;
10295;SDS011;5193;51.032;6.356;2022-09-09T17:08:16;5.73;;;1.20;;
10295;SDS011;5193;51.032;6.356;2022-09-09T17:10:42;3.07;;;1.00;;
10295;SDS011;5193;51.032;6.356;2022-09-09T17:13:07;2.30;;;0.80;;
10295;SDS011;5193;51.032;6.356;2022-09-09T17:15:33;1.77;;;0.60;;
10295;SDS011;5193;51.032;6.356;2022-09-09T17:18:05;3.30;;;0.70;;
10295;SDS011;5193;51.032;6.356;2022-09-09T17:20:30;2.80;;;0.80;;
10295;SDS011;5193;51.032;6.356;2022-09-09T17:22:59;3.10;;;1.23;;